createdAt,value
2022-10-17T00:00:28.610Z,19.95
2022-10-17T00:02:56.136Z,6.93
2022-10-17T00:05:23.642Z,10.27
2022-10-17T00:07:50.108Z,10.55
2022-10-17T00:10:20.164Z,15.63
2022-10-17T00:12:48.247Z,13.40
2022-10-17T00:15:18.287Z,14.65
2022-10-17T00:17:45.039Z,14.30
2022-10-17T00:20:13.521Z,11.77
2022-10-17T00:22:40.153Z,17.05
2022-10-17T00:25:07.062Z,15.23
2022-10-17T00:27:38.114Z,15.60
2022-10-17T00:30:06.447Z,13.57
2022-10-17T00:32:32.927Z,11.52
2022-10-17T00:34:59.443Z,12.80
2022-10-17T00:37:25.899Z,12.32
2022-10-17T00:39:52.434Z,15.55
2022-10-17T00:42:19.052Z,11.80
2022-10-17T00:44:47.493Z,11.50
2022-10-17T00:47:17.740Z,22.40
2022-10-17T00:49:44.403Z,13.98
2022-10-17T00:52:25.312Z,16.15
2022-10-17T00:54:55.063Z,18.55
2022-10-17T00:57:22.028Z,11.93
2022-10-17T00:59:51.735Z,9.60
2022-10-17T01:02:21.022Z,13.00
2022-10-17T01:04:49.303Z,13.18
2022-10-17T01:07:16.031Z,13.85
2022-10-17T01:09:43.273Z,13.10
2022-10-17T01:12:15.859Z,14.10
2022-10-17T01:15:10.167Z,18.30
2022-10-17T01:17:45.553Z,13.25
2022-10-17T01:20:24.051Z,9.65
2022-10-17T01:23:13.841Z,14.52
2022-10-17T01:25:58.589Z,14.70
2022-10-17T01:28:54.256Z,11.05
2022-10-17T01:31:23.043Z,12.82
2022-10-17T01:34:07.748Z,18.92
2022-10-17T01:36:38.299Z,12.93
2022-10-17T01:39:15.455Z,17.75
2022-10-17T01:42:19.511Z,7.63
2022-10-17T01:44:59.294Z,15.55
2022-10-17T01:47:28.993Z,10.43
2022-10-17T01:49:59.381Z,10.38
2022-10-17T01:52:30.188Z,14.73
2022-10-17T01:55:27.592Z,10.30
2022-10-17T01:57:57.677Z,12.10
2022-10-17T02:00:26.198Z,13.07
2022-10-17T02:02:57.037Z,13.68
2022-10-17T02:05:26.822Z,12.30
2022-10-17T02:07:53.282Z,17.08
2022-10-17T02:10:36.693Z,14.32
2022-10-17T02:13:27.632Z,9.10
2022-10-17T02:16:09.301Z,13.77
2022-10-17T02:18:53.040Z,13.57
2022-10-17T02:21:39.636Z,18.75
2022-10-17T02:24:25.689Z,14.65
2022-10-17T02:27:08.170Z,15.85
2022-10-17T02:29:40.443Z,12.50
2022-10-17T02:32:09.062Z,13.65
2022-10-17T02:34:43.245Z,15.00
2022-10-17T02:37:11.035Z,10.98
2022-10-17T02:39:38.234Z,15.25
2022-10-17T02:42:06.544Z,19.55
2022-10-17T02:44:33.835Z,17.38
2022-10-17T02:47:26.976Z,10.40
2022-10-17T02:49:56.474Z,7.28
2022-10-17T02:52:35.258Z,15.98
2022-10-17T02:55:16.473Z,13.32
2022-10-17T02:57:45.637Z,13.27
2022-10-17T03:00:22.770Z,15.65
2022-10-17T03:02:51.205Z,12.30
2022-10-17T03:05:26.842Z,15.75
2022-10-17T03:07:54.128Z,12.35
2022-10-17T03:10:20.866Z,12.45
2022-10-17T03:12:53.542Z,13.18
2022-10-17T03:15:20.064Z,15.63
2022-10-17T03:17:46.660Z,13.65
2022-10-17T03:20:13.160Z,13.25
2022-10-17T03:22:39.681Z,17.80
2022-10-17T03:25:06.510Z,16.00
2022-10-17T03:27:33.243Z,19.27
2022-10-17T03:29:59.783Z,17.55
2022-10-17T03:32:26.331Z,20.35
2022-10-17T03:34:52.810Z,12.25
2022-10-17T03:37:19.255Z,13.52
2022-10-17T03:39:45.724Z,18.70
2022-10-17T03:42:12.184Z,15.30
2022-10-17T03:44:38.635Z,15.30
2022-10-17T03:47:06.491Z,18.33
2022-10-17T03:49:33.714Z,16.42
2022-10-17T03:52:00.178Z,11.45
2022-10-17T03:54:26.810Z,12.80
2022-10-17T03:56:53.361Z,13.05
2022-10-17T03:59:19.827Z,12.95
2022-10-17T04:01:46.476Z,13.65
2022-10-17T04:04:13.102Z,15.00
2022-10-17T04:06:39.552Z,10.90
2022-10-17T04:09:06.912Z,16.13
2022-10-17T04:11:33.994Z,16.40
2022-10-17T04:14:00.457Z,14.30
2022-10-17T04:16:27.020Z,12.65
2022-10-17T04:18:55.368Z,13.73
2022-10-17T04:21:23.002Z,17.92
2022-10-17T04:23:53.175Z,11.65
2022-10-17T04:26:19.911Z,13.35
2022-10-17T04:28:46.413Z,14.90
2022-10-17T04:31:14.367Z,15.77
2022-10-17T04:33:41.386Z,9.45
2022-10-17T04:36:11.972Z,12.07
2022-10-17T04:38:38.492Z,11.30
2022-10-17T04:41:07.617Z,12.77
2022-10-17T04:43:36.514Z,13.18
2022-10-17T04:46:05.484Z,13.00
2022-10-17T04:48:31.975Z,10.02
2022-10-17T04:51:04.536Z,10.50
2022-10-17T04:53:33.560Z,11.63
2022-10-17T04:56:00.031Z,9.32
2022-10-17T04:58:28.160Z,11.10
2022-10-17T05:00:54.726Z,9.60
2022-10-17T05:03:21.253Z,12.27
2022-10-17T05:05:48.187Z,10.57
2022-10-17T05:08:14.640Z,12.77
2022-10-17T05:10:43.260Z,9.75
2022-10-17T05:13:10.372Z,12.15
2022-10-17T05:15:37.856Z,10.52
2022-10-17T05:18:05.619Z,10.43
2022-10-17T05:20:32.719Z,9.70
2022-10-17T05:22:59.798Z,13.70
2022-10-17T05:25:26.402Z,12.35
2022-10-17T05:27:53.429Z,9.55
2022-10-17T05:30:19.897Z,11.23
2022-10-17T05:32:46.356Z,11.73
2022-10-17T05:35:12.815Z,8.77
2022-10-17T05:37:39.295Z,10.93
2022-10-17T05:40:06.208Z,10.75
2022-10-17T05:42:33.143Z,7.22
2022-10-17T05:44:59.850Z,9.40
2022-10-17T05:47:26.407Z,9.45
2022-10-17T05:49:53.121Z,13.02
2022-10-17T05:52:19.596Z,9.02
2022-10-17T05:54:46.082Z,11.55
2022-10-17T05:57:12.558Z,8.85
2022-10-17T05:59:39.066Z,9.77
2022-10-17T06:02:05.604Z,9.32
2022-10-17T06:04:32.432Z,8.73
2022-10-17T06:06:58.913Z,8.25
2022-10-17T06:09:25.562Z,6.68
2022-10-17T06:11:52.078Z,7.18
2022-10-17T06:14:18.537Z,7.93
2022-10-17T06:16:45.035Z,8.98
2022-10-17T06:19:11.601Z,6.93
2022-10-17T06:21:38.866Z,7.47
2022-10-17T06:24:05.323Z,5.53
2022-10-17T06:26:31.785Z,6.68
2022-10-17T06:28:58.272Z,8.13
2022-10-17T06:31:24.802Z,7.68
2022-10-17T06:33:51.255Z,4.80
2022-10-17T06:36:17.735Z,6.55
2022-10-17T06:38:44.205Z,6.43
2022-10-17T06:41:15.108Z,9.10
2022-10-17T06:43:48.829Z,6.75
2022-10-17T06:46:16.952Z,3.95
2022-10-17T06:48:43.441Z,5.25
2022-10-17T06:51:11.363Z,7.68
2022-10-17T06:53:39.377Z,5.10
2022-10-17T06:56:07.106Z,5.15
2022-10-17T06:58:35.622Z,6.43
2022-10-17T07:01:04.176Z,6.05
2022-10-17T07:03:30.690Z,6.45
2022-10-17T07:05:57.405Z,6.30
2022-10-17T07:08:24.439Z,6.00
2022-10-17T07:10:51.261Z,9.77
2022-10-17T07:13:18.707Z,7.07
2022-10-17T07:15:45.698Z,4.25
2022-10-17T07:18:12.322Z,4.65
2022-10-17T07:20:38.864Z,6.38
2022-10-17T07:23:05.318Z,4.30
2022-10-17T07:25:33.270Z,4.70
2022-10-17T07:28:02.175Z,8.02
2022-10-17T07:30:28.746Z,4.07
2022-10-17T07:32:55.257Z,6.10
2022-10-17T07:35:21.948Z,5.78
2022-10-17T07:37:48.564Z,5.30
2022-10-17T07:40:15.067Z,6.88
2022-10-17T07:42:41.565Z,4.90
2022-10-17T07:45:08.525Z,5.30
2022-10-17T07:47:35.799Z,4.53
2022-10-17T07:50:03.805Z,6.00
2022-10-17T07:52:30.616Z,6.20
2022-10-17T07:54:57.368Z,7.40
2022-10-17T07:57:23.991Z,3.78
2022-10-17T07:59:51.293Z,7.18
2022-10-17T08:02:23.568Z,5.47
2022-10-17T08:04:50.528Z,4.72
2022-10-17T08:07:23.262Z,4.00
2022-10-17T08:09:50.795Z,3.72
2022-10-17T08:12:17.713Z,3.97
2022-10-17T08:14:44.333Z,4.97
2022-10-17T08:17:10.797Z,4.30
2022-10-17T08:19:41.244Z,4.47
2022-10-17T08:22:08.331Z,3.03
2022-10-17T08:24:35.274Z,6.25
2022-10-17T08:27:01.897Z,3.58
2022-10-17T08:29:28.363Z,5.20
2022-10-17T08:32:00.842Z,4.40
2022-10-17T08:34:27.526Z,9.13
2022-10-17T08:36:54.105Z,6.30
2022-10-17T08:39:20.562Z,6.03
2022-10-17T08:41:56.220Z,5.47
2022-10-17T08:45:14.660Z,6.90
2022-10-17T08:47:44.661Z,7.18
2022-10-17T08:50:35.569Z,4.13
2022-10-17T08:53:34.710Z,4.13
2022-10-17T08:56:11.933Z,3.97
2022-10-17T08:58:41.692Z,6.32
2022-10-17T09:01:37.517Z,5.30
2022-10-17T09:04:38.193Z,4.78
2022-10-17T09:07:32.084Z,7.10
2022-10-17T09:10:29.981Z,5.57
2022-10-17T09:13:08.403Z,7.10
2022-10-17T09:16:01.338Z,5.95
2022-10-17T09:18:33.970Z,4.38
2022-10-17T09:21:39.334Z,4.13
2022-10-17T09:24:20.941Z,4.93
2022-10-17T09:26:47.400Z,4.55
2022-10-17T09:29:23.315Z,6.40
2022-10-17T09:32:02.273Z,6.32
2022-10-17T09:34:31.784Z,4.72
2022-10-17T09:37:00.462Z,5.80
2022-10-17T09:39:29.169Z,4.68
2022-10-17T09:41:57.434Z,8.57
2022-10-17T09:44:32.950Z,5.20
2022-10-17T09:47:20.552Z,6.40
2022-10-17T09:49:48.341Z,5.75
2022-10-17T09:52:18.826Z,6.05
2022-10-17T09:54:50.879Z,8.10
2022-10-17T09:57:18.887Z,6.32
2022-10-17T09:59:49.343Z,5.68
2022-10-17T10:02:15.755Z,5.50
2022-10-17T10:05:06.067Z,6.72
2022-10-17T10:07:36.562Z,5.18
2022-10-17T10:10:05.950Z,4.85
2022-10-17T10:12:38.025Z,6.18
2022-10-17T10:15:33.322Z,5.68
2022-10-17T10:18:00.014Z,5.63
2022-10-17T10:20:32.658Z,4.53
2022-10-17T10:23:14.950Z,4.15
2022-10-17T10:25:56.302Z,4.60
2022-10-17T10:28:34.146Z,7.65
2022-10-17T10:31:04.703Z,8.73
2022-10-17T10:33:32.437Z,6.22
2022-10-17T10:36:01.839Z,5.55
2022-10-17T10:38:29.423Z,5.80
2022-10-17T10:41:01.884Z,5.88
2022-10-17T10:43:33.459Z,8.52
2022-10-17T10:46:00.619Z,6.13
2022-10-17T10:48:37.442Z,5.32
2022-10-17T10:51:14.634Z,5.50
2022-10-17T10:53:49.865Z,6.20
2022-10-17T10:56:26.063Z,6.72
2022-10-17T10:59:08.993Z,8.77
2022-10-17T11:01:54.736Z,6.13
2022-10-17T11:04:45.096Z,7.00
2022-10-17T11:07:25.820Z,6.25
2022-10-17T11:09:59.915Z,8.88
2022-10-17T11:12:34.383Z,9.82
2022-10-17T11:15:07.890Z,9.18
2022-10-17T11:17:44.261Z,8.27
2022-10-17T11:20:44.086Z,7.90
2022-10-17T11:23:21.674Z,7.45
2022-10-17T11:25:50.968Z,8.93
2022-10-17T11:28:20.246Z,8.55
2022-10-17T11:31:04.639Z,8.23
2022-10-17T11:33:56.952Z,8.07
2022-10-17T11:36:29.643Z,10.90
2022-10-17T11:39:05.696Z,12.53
2022-10-17T11:41:45.446Z,9.32
2022-10-17T11:44:36.417Z,10.18
2022-10-17T11:47:30.052Z,9.20
2022-10-17T11:53:13.248Z,9.10
2022-10-17T11:55:41.307Z,10.63
2022-10-17T11:58:43.288Z,12.57
2022-10-17T12:01:33.393Z,9.77
2022-10-17T12:04:05.884Z,9.38
2022-10-17T12:06:54.185Z,12.77
2022-10-17T12:09:41.871Z,10.73
2022-10-17T12:12:09.023Z,13.00
2022-10-17T12:14:47.758Z,11.57
2022-10-17T12:17:39.118Z,14.45
2022-10-17T12:20:21.406Z,11.77
2022-10-17T12:22:48.903Z,11.48
2022-10-17T12:25:30.677Z,16.10
2022-10-17T12:28:13.305Z,15.30
2022-10-17T12:30:58.775Z,14.07
2022-10-17T12:33:30.887Z,12.80
2022-10-17T12:36:18.953Z,16.63
2022-10-17T12:38:50.421Z,16.52
2022-10-17T12:41:17.700Z,19.88
2022-10-17T12:43:52.344Z,15.60
2022-10-17T12:46:42.040Z,13.63
2022-10-17T12:49:23.988Z,17.58
2022-10-17T12:52:08.695Z,17.83
2022-10-17T12:54:59.896Z,18.58
2022-10-17T12:57:33.424Z,18.30
2022-10-17T13:00:15.932Z,16.02
2022-10-17T13:02:42.552Z,16.50
2022-10-17T13:05:15.887Z,19.40
2022-10-17T13:07:44.388Z,14.48
2022-10-17T13:10:23.112Z,21.27
2022-10-17T13:12:50.570Z,21.45
2022-10-17T13:15:19.314Z,19.27
2022-10-17T13:17:45.919Z,19.55
2022-10-17T13:20:28.869Z,18.67
2022-10-17T13:22:58.312Z,18.45
2022-10-17T13:25:26.196Z,19.98
2022-10-17T13:28:03.947Z,17.63
2022-10-17T13:30:33.219Z,19.02
2022-10-17T13:33:00.815Z,20.10
2022-10-17T13:35:58.691Z,18.38
2022-10-17T13:38:27.513Z,21.88
2022-10-17T13:41:01.758Z,19.55
2022-10-17T13:43:38.678Z,16.30
2022-10-17T13:46:25.351Z,19.20
2022-10-17T13:48:52.607Z,19.08
2022-10-17T13:51:19.448Z,21.60
2022-10-17T13:53:45.933Z,21.38
2022-10-17T13:56:28.864Z,19.02
2022-10-17T13:59:17.332Z,18.73
2022-10-17T14:01:43.868Z,19.65
2022-10-17T14:04:19.583Z,17.15
2022-10-17T14:06:49.635Z,17.88
2022-10-17T14:09:18.535Z,20.50
2022-10-17T14:11:45.307Z,17.65
2022-10-17T14:14:20.207Z,15.10
2022-10-17T14:16:51.712Z,18.77
2022-10-17T14:19:31.879Z,14.43
2022-10-17T14:22:27.293Z,14.77
2022-10-17T14:24:57.124Z,18.63
2022-10-17T14:27:42.410Z,18.60
2022-10-17T14:30:51.625Z,12.05
2022-10-17T14:33:24.516Z,13.48
2022-10-17T14:35:56.478Z,13.90
2022-10-17T14:38:23.612Z,14.93
2022-10-17T14:41:04.834Z,22.52
2022-10-17T14:43:43.196Z,16.35
2022-10-17T14:46:14.914Z,19.73
2022-10-17T14:48:41.983Z,15.45
2022-10-17T14:51:12.578Z,16.35
2022-10-17T14:53:39.591Z,18.58
2022-10-17T14:56:26.246Z,22.60
2022-10-17T14:58:52.863Z,13.32
2022-10-17T15:01:19.608Z,19.38
2022-10-17T15:03:47.627Z,18.40
2022-10-17T15:06:23.586Z,19.52
2022-10-17T15:08:50.086Z,20.65
2022-10-17T15:11:16.532Z,18.75
2022-10-17T15:13:45.685Z,14.93
2022-10-17T15:16:19.022Z,20.17
2022-10-17T15:18:45.535Z,16.73
2022-10-17T15:21:33.644Z,16.55
2022-10-17T15:24:01.711Z,19.17
2022-10-17T15:26:31.753Z,18.65
2022-10-17T15:28:58.300Z,19.15
2022-10-17T15:31:25.912Z,14.85
2022-10-17T15:33:52.564Z,21.48
2022-10-17T15:36:37.751Z,16.00
2022-10-17T15:39:04.306Z,12.70
2022-10-17T15:41:32.210Z,16.02
2022-10-17T15:43:59.368Z,19.05
2022-10-17T15:46:29.309Z,18.75
2022-10-17T15:48:56.917Z,22.23
2022-10-17T15:51:23.903Z,17.00
2022-10-17T15:53:50.396Z,15.23
2022-10-17T15:56:21.265Z,20.92
2022-10-17T15:58:47.831Z,20.30
2022-10-17T16:01:21.610Z,20.00
2022-10-17T16:03:50.187Z,19.27
2022-10-17T16:06:18.571Z,15.43
2022-10-17T16:08:48.697Z,24.33
2022-10-17T16:11:26.332Z,19.83
2022-10-17T16:13:54.084Z,15.43
2022-10-17T16:16:22.588Z,14.40
2022-10-17T16:18:49.232Z,18.52
2022-10-17T16:21:16.608Z,21.55
2022-10-17T16:23:43.277Z,18.55
2022-10-17T16:26:09.917Z,18.67
2022-10-17T16:28:36.473Z,17.17
2022-10-17T16:31:02.958Z,18.48
2022-10-17T16:33:31.259Z,17.15
2022-10-17T16:35:57.946Z,17.67
2022-10-17T16:38:24.417Z,23.00
2022-10-17T16:40:51.156Z,15.65
2022-10-17T16:43:17.807Z,14.88
2022-10-17T16:45:44.355Z,21.10
2022-10-17T16:48:11.107Z,16.33
2022-10-17T16:50:39.580Z,18.70
2022-10-17T16:53:06.043Z,17.25
2022-10-17T16:55:32.502Z,16.98
2022-10-17T16:57:59.916Z,16.85
2022-10-17T17:00:26.738Z,18.77
2022-10-17T17:02:53.267Z,15.52
2022-10-17T17:05:19.814Z,15.88
2022-10-17T17:07:47.931Z,22.30
2022-10-17T17:10:14.420Z,11.82
2022-10-17T17:12:40.884Z,13.07
2022-10-17T17:15:07.759Z,13.15
2022-10-17T17:17:49.590Z,15.57
2022-10-17T17:20:17.845Z,16.42
2022-10-17T17:22:44.297Z,10.10
2022-10-17T17:25:10.765Z,11.82
2022-10-17T17:27:44.861Z,12.30
2022-10-17T17:30:13.393Z,11.77
2022-10-17T17:32:40.315Z,16.40
2022-10-17T17:35:08.281Z,11.30
2022-10-17T17:37:35.011Z,9.15
2022-10-17T17:40:01.551Z,12.35
2022-10-17T17:42:28.186Z,8.60
2022-10-17T17:44:54.745Z,7.63
2022-10-17T17:47:21.279Z,9.23
2022-10-17T17:49:48.107Z,12.80
2022-10-17T17:52:14.650Z,10.38
2022-10-17T17:54:41.247Z,10.70
2022-10-17T17:57:07.730Z,10.63
2022-10-17T17:59:34.309Z,13.65
2022-10-17T18:02:03.604Z,11.07
2022-10-17T18:04:30.223Z,13.45
2022-10-17T18:06:56.756Z,12.50
2022-10-17T18:09:24.244Z,10.73
2022-10-17T18:11:53.164Z,14.05
2022-10-17T18:14:24.177Z,14.45
2022-10-17T18:16:53.920Z,12.15
2022-10-17T18:19:22.157Z,12.77
2022-10-17T18:21:48.758Z,13.93
2022-10-17T18:24:15.223Z,10.25
2022-10-17T18:26:41.682Z,16.67
2022-10-17T18:29:09.003Z,9.05
2022-10-17T18:31:36.025Z,13.32
2022-10-17T18:34:04.123Z,14.20
2022-10-17T18:36:31.454Z,17.83
2022-10-17T18:38:59.251Z,13.65
2022-10-17T18:41:27.425Z,13.60
2022-10-17T18:43:55.831Z,12.60
2022-10-17T18:46:28.421Z,13.38
2022-10-17T18:48:55.725Z,12.18
2022-10-17T18:51:24.756Z,14.13
2022-10-17T18:53:54.186Z,12.20
2022-10-17T18:56:22.236Z,14.32
2022-10-17T18:58:49.848Z,13.40
2022-10-17T19:01:19.120Z,14.43
2022-10-17T19:03:48.579Z,11.75
2022-10-17T19:06:17.246Z,14.48
2022-10-17T19:08:44.000Z,16.23
2022-10-17T19:11:13.178Z,14.60
2022-10-17T19:13:40.113Z,17.15
2022-10-17T19:16:20.708Z,16.08
2022-10-17T19:18:52.533Z,14.45
2022-10-17T19:21:21.845Z,13.88
2022-10-17T19:23:52.475Z,12.82
2022-10-17T19:26:19.700Z,15.68
2022-10-17T19:28:47.536Z,12.68
2022-10-17T19:31:16.990Z,13.85
2022-10-17T19:33:44.692Z,13.85
2022-10-17T19:36:11.693Z,14.93
2022-10-17T19:38:38.191Z,17.10
2022-10-17T19:41:08.501Z,13.45
2022-10-17T19:43:39.212Z,11.95
2022-10-17T19:46:08.718Z,15.10
2022-10-17T19:48:39.961Z,13.40
2022-10-17T19:51:12.102Z,25.75
2022-10-17T19:53:39.692Z,16.75
2022-10-17T19:56:07.054Z,14.20
2022-10-17T19:58:37.302Z,20.98
2022-10-17T20:01:05.578Z,19.13
2022-10-17T20:03:32.068Z,22.27
2022-10-17T20:05:58.524Z,22.52
2022-10-17T20:10:52.385Z,16.52
2022-10-17T20:13:18.849Z,19.98
2022-10-17T20:15:55.792Z,21.50
2022-10-17T20:18:22.257Z,20.95
2022-10-17T20:20:48.845Z,21.00
2022-10-17T20:23:15.370Z,26.10
2022-10-17T20:25:41.872Z,17.38
2022-10-17T20:28:08.555Z,21.42
2022-10-17T20:30:35.298Z,20.25
2022-10-17T20:33:01.787Z,15.23
2022-10-17T20:35:28.261Z,21.08
2022-10-17T20:37:54.775Z,22.73
2022-10-17T20:40:34.552Z,21.02
2022-10-17T20:43:02.284Z,20.48
2022-10-17T20:45:43.693Z,17.63
2022-10-17T20:48:15.712Z,22.73
2022-10-17T20:50:43.455Z,22.65
2022-10-17T20:53:35.425Z,24.10
2022-10-17T20:56:05.891Z,21.95
2022-10-17T20:58:33.006Z,20.52
2022-10-17T21:01:15.240Z,25.67
2022-10-17T21:03:45.476Z,23.92
2022-10-17T21:06:14.097Z,18.83
2022-10-17T21:08:40.557Z,24.50
2022-10-17T21:11:18.058Z,24.80
2022-10-17T21:13:45.098Z,21.20
2022-10-17T21:16:17.615Z,30.42
2022-10-17T21:18:44.335Z,23.98
2022-10-17T21:21:19.939Z,27.85
2022-10-17T21:23:48.272Z,28.33
2022-10-17T21:26:15.968Z,23.95
2022-10-17T21:28:43.843Z,28.83
2022-10-17T21:31:21.783Z,23.50
2022-10-17T21:33:57.352Z,31.15
2022-10-17T21:36:25.096Z,34.42
2022-10-17T21:38:54.359Z,32.88
2022-10-17T21:41:24.062Z,27.63
2022-10-17T21:44:00.274Z,29.10
2022-10-17T21:46:27.020Z,23.65
2022-10-17T21:48:54.390Z,25.08
2022-10-17T21:51:23.187Z,21.73
2022-10-17T21:53:52.415Z,23.13
2022-10-17T21:56:21.553Z,26.98
2022-10-17T21:58:49.115Z,25.00
2022-10-17T22:01:17.681Z,24.35
2022-10-17T22:03:48.972Z,27.08
2022-10-17T22:06:39.241Z,24.80
2022-10-17T22:09:06.627Z,27.35
2022-10-17T22:11:35.169Z,20.42
2022-10-17T22:14:05.109Z,21.10
2022-10-17T22:16:32.028Z,20.50
2022-10-17T22:19:06.165Z,25.27
2022-10-17T22:21:34.792Z,26.80
2022-10-17T22:24:03.703Z,25.10
2022-10-17T22:26:36.391Z,23.02
2022-10-17T22:29:04.639Z,22.05
2022-10-17T22:31:31.316Z,23.30
2022-10-17T22:33:58.276Z,21.10
2022-10-17T22:36:26.251Z,19.98
2022-10-17T22:38:53.741Z,25.85
2022-10-17T22:41:20.430Z,25.92
2022-10-17T22:43:47.226Z,29.15
2022-10-17T22:46:14.435Z,25.52
2022-10-17T22:48:41.145Z,20.35
2022-10-17T22:51:08.415Z,20.92
2022-10-17T22:53:35.871Z,25.67
2022-10-17T22:56:06.122Z,23.17
2022-10-17T22:58:34.060Z,23.63
2022-10-17T23:01:00.630Z,24.48
2022-10-17T23:03:28.375Z,22.02
2022-10-17T23:05:55.102Z,21.15
2022-10-17T23:08:21.587Z,17.98
2022-10-17T23:10:48.308Z,22.52
2022-10-17T23:13:15.145Z,22.15
2022-10-17T23:15:42.191Z,25.67
2022-10-17T23:18:10.561Z,18.48
2022-10-17T23:20:39.431Z,28.00
2022-10-17T23:23:06.486Z,21.88
2022-10-17T23:25:34.151Z,21.35
2022-10-17T23:28:00.944Z,20.25
2022-10-17T23:30:27.511Z,17.77
2022-10-17T23:32:54.474Z,18.20
2022-10-17T23:35:20.973Z,19.27
2022-10-17T23:37:47.619Z,22.08
2022-10-17T23:40:14.211Z,22.00
2022-10-17T23:42:41.835Z,16.45
2022-10-17T23:45:08.742Z,22.17
2022-10-17T23:47:35.275Z,21.80
2022-10-17T23:50:01.814Z,14.70
2022-10-17T23:52:28.647Z,21.20
2022-10-17T23:54:55.962Z,14.73
2022-10-17T23:57:22.649Z,18.00
2022-10-17T23:59:49.187Z,20.63
